CheckWX is a tool to help pilots better visualize weather data.  It is not intended as a substitute for an official pre-flight weather briefing.

21:12:11 UTC

PAGY METAR
Skagway Airport
Skagway, Alaska, USA
Current

19 mins ago

PAGY 192053Z AUTO 20017G27KT 10SM -RA SCT050 OVC060 13/09 A2980 RMK AO2 PK WND 21029/1955 SLP091 P0000 60000 T01330094 53010 TSNO
Observed
Sep-19 @ 20:53 UTC
Wind
  • 200° at 17 KTS
  • Gusting to 27 KTS
Visibility
10 SM
Flight Rules
VFR
Conditions
Light Rain
Cloud Levels
  • Scattered at 5,000' AGL
  • Overcast at 6,000' AGL
Temperature
13°C / 55°F
Dewpoint
C / 48°F
Humidity
77%
Altimeter
29.8" Hg
Pressure
1009.12 hPa
Current Rain
0.01"
Previous

1 hour ago

PAGY 191953Z AUTO 21025G30KT 10SM -RA OVC060 13/09 A2977 RMK PK WND 21030/1953 SLP081 P0000 T01330094 TSNO VIA AUTODIAL
Observed
Sep-19 @ 19:53 UTC
Wind
  • 210° at 25 KTS
  • Gusting to 30 KTS
Visibility
10 SM
Flight Rules
VFR
Conditions
Light Rain
Cloud Levels
  • Overcast at 6,000' AGL
Temperature
13°C / 55°F
Dewpoint
C / 48°F
Humidity
77%
Altimeter
29.77" Hg
Pressure
1008.12 hPa
Current Rain
0.01"
Previous

2 hours ago

PAGY 191853Z AUTO 21020KT 10SM -RA SCT043 BKN065 OVC110 13/10 A2977 RMK PK WND 20029/1813 SLP081 P0000 T01280100 TSNO VIA AUTODIAL
Observed
Sep-19 @ 18:53 UTC
Wind
  • 210° at 20 KTS
Visibility
10 SM
Flight Rules
VFR
Conditions
Light Rain
Cloud Levels
  • Scattered at 4,300' AGL
  • Broken at 6,500' AGL
  • Overcast at 11,000' AGL
Temperature
13°C / 55°F
Dewpoint
10°C / 50°F
Humidity
82%
Altimeter
29.77" Hg
Pressure
1008.12 hPa
Current Rain
0.01"